createdAt,value
2023-02-01T00:00:16.924Z,2.24
2023-02-01T00:03:20.225Z,2.26
2023-02-01T00:06:23.341Z,2.21
2023-02-01T00:09:26.281Z,2.33
2023-02-01T00:12:29.127Z,2.43
2023-02-01T00:15:32.110Z,2.60
2023-02-01T00:18:35.358Z,2.51
2023-02-01T00:21:38.243Z,2.48
2023-02-01T00:24:41.448Z,2.51
2023-02-01T00:27:44.267Z,2.28
2023-02-01T00:30:47.199Z,2.06
2023-02-01T00:33:50.357Z,2.07
2023-02-01T00:36:53.155Z,1.91
2023-02-01T00:39:56.988Z,1.97
2023-02-01T00:42:59.939Z,2.16
2023-02-01T00:46:03.105Z,2.09
2023-02-01T00:49:06.686Z,2.02
2023-02-01T00:52:09.518Z,1.92
2023-02-01T00:55:12.658Z,2.03
2023-02-01T00:58:16.204Z,2.25
2023-02-01T01:01:22.566Z,2.34
2023-02-01T01:04:25.524Z,2.12
2023-02-01T01:07:29.420Z,2.06
2023-02-01T01:10:33.602Z,2.12
2023-02-01T01:13:36.979Z,2.11
2023-02-01T01:16:40.078Z,2.10
2023-02-01T01:19:42.877Z,2.21
2023-02-01T01:22:45.665Z,2.23
2023-02-01T01:25:48.725Z,2.11
2023-02-01T01:28:52.164Z,2.02
2023-02-01T01:31:55.371Z,2.08
2023-02-01T01:34:58.210Z,2.09
2023-02-01T01:38:01.851Z,2.03
2023-02-01T01:41:05.214Z,2.11
2023-02-01T01:44:46.564Z,2.26
2023-02-01T01:47:56.571Z,2.47
2023-02-01T01:51:08.018Z,2.31
2023-02-01T01:54:25.750Z,2.37
2023-02-01T01:57:36.830Z,2.24
2023-02-01T02:00:40.496Z,2.23
2023-02-01T02:03:48.826Z,2.21
2023-02-01T02:06:58.658Z,2.21
2023-02-01T02:10:03.132Z,2.19
2023-02-01T02:13:05.981Z,2.21
2023-02-01T02:16:32.946Z,2.33
2023-02-01T02:19:45.017Z,2.55
2023-02-01T02:23:03.675Z,2.41
2023-02-01T02:26:11.521Z,2.34
2023-02-01T02:29:24.683Z,2.24
2023-02-01T02:33:04.971Z,2.10
2023-02-01T02:36:21.384Z,1.73
2023-02-01T02:40:00.864Z,1.69
2023-02-01T02:43:42.173Z,1.41
2023-02-01T02:47:08.623Z,1.25
2023-02-01T02:50:35.348Z,1.17
2023-02-01T02:54:08.399Z,1.23
2023-02-01T02:57:42.394Z,1.41
2023-02-01T03:01:04.783Z,1.56
2023-02-01T03:04:13.071Z,1.50
2023-02-01T03:07:47.885Z,1.49
2023-02-01T03:11:10.618Z,1.46
2023-02-01T03:14:16.657Z,1.46
2023-02-01T03:17:27.204Z,1.57
2023-02-01T03:20:31.471Z,1.68
2023-02-01T03:23:38.283Z,1.73
2023-02-01T03:26:50.416Z,1.84
2023-02-01T03:30:07.350Z,1.86
2023-02-01T03:33:24.251Z,1.90
2023-02-01T03:36:32.744Z,1.95
2023-02-01T03:39:41.787Z,2.08
2023-02-01T03:42:55.513Z,2.17
2023-02-01T03:46:05.328Z,2.26
2023-02-01T03:49:11.731Z,2.26
2023-02-01T03:52:22.279Z,2.23
2023-02-01T03:55:28.516Z,2.30
2023-02-01T03:58:31.367Z,2.16
2023-02-01T04:01:34.335Z,2.19
2023-02-01T04:04:37.712Z,2.20
2023-02-01T04:07:41.133Z,2.21
2023-02-01T04:10:45.131Z,2.26
2023-02-01T04:13:47.905Z,2.29
2023-02-01T04:16:50.749Z,2.25
2023-02-01T04:19:55.473Z,2.27
2023-02-01T04:22:58.626Z,2.26
2023-02-01T04:26:03.232Z,2.30
2023-02-01T04:29:06.400Z,2.36
2023-02-01T04:32:09.428Z,2.40
2023-02-01T04:35:13.010Z,2.47
2023-02-01T04:38:15.823Z,2.44
2023-02-01T04:41:19.976Z,2.47
2023-02-01T04:44:22.888Z,2.55
2023-02-01T04:47:30.524Z,2.64
2023-02-01T04:50:33.403Z,2.63
2023-02-01T04:53:36.152Z,2.64
2023-02-01T04:56:39.303Z,2.71
2023-02-01T04:59:42.074Z,2.75
2023-02-01T05:02:45.240Z,2.76
2023-02-01T05:05:51.280Z,2.74
2023-02-01T05:08:54.309Z,2.76
2023-02-01T05:12:15.519Z,2.69
2023-02-01T05:15:18.667Z,2.72
2023-02-01T05:18:21.503Z,2.73
2023-02-01T05:21:24.363Z,2.76
2023-02-01T05:24:28.243Z,2.70
2023-02-01T05:27:31.890Z,2.72
2023-02-01T05:30:36.383Z,2.76
2023-02-01T05:33:39.252Z,2.69
2023-02-01T05:36:42.437Z,2.68
2023-02-01T05:39:45.336Z,2.72
2023-02-01T05:42:48.187Z,2.61
2023-02-01T05:45:53.362Z,2.57
2023-02-01T05:48:56.340Z,2.53
2023-02-01T05:52:00.528Z,2.60
2023-02-01T05:55:03.787Z,2.62
2023-02-01T05:58:06.871Z,2.72
2023-02-01T06:01:09.794Z,2.76
2023-02-01T06:04:12.816Z,2.80
2023-02-01T06:07:15.761Z,2.88
2023-02-01T06:10:19.717Z,2.87
2023-02-01T06:13:22.824Z,2.88
2023-02-01T06:16:25.806Z,2.83
2023-02-01T06:19:28.571Z,2.86
2023-02-01T06:22:31.381Z,2.77
2023-02-01T06:25:34.205Z,2.77
2023-02-01T06:28:37.118Z,2.73
2023-02-01T06:31:40.206Z,2.72
2023-02-01T06:34:43.090Z,2.73
2023-02-01T06:37:46.523Z,2.77
2023-02-01T06:40:56.720Z,2.89
2023-02-01T06:43:59.743Z,2.94
2023-02-01T06:47:04.054Z,2.89
2023-02-01T06:50:08.905Z,2.93
2023-02-01T06:53:11.801Z,3.01
2023-02-01T06:56:14.530Z,3.09
2023-02-01T06:59:17.525Z,3.22
2023-02-01T07:02:20.791Z,3.14
2023-02-01T07:05:23.797Z,3.16
2023-02-01T07:08:29.547Z,3.26
2023-02-01T07:11:33.140Z,3.37
2023-02-01T07:14:36.246Z,3.41
2023-02-01T07:17:39.110Z,3.45
2023-02-01T07:20:42.422Z,3.51
2023-02-01T07:23:45.258Z,3.47
2023-02-01T07:26:49.187Z,3.50
2023-02-01T07:29:52.385Z,3.53
2023-02-01T07:32:55.404Z,3.52
2023-02-01T07:35:58.441Z,3.47
2023-02-01T07:39:01.616Z,3.61
2023-02-01T07:42:04.466Z,3.60
2023-02-01T07:45:20.343Z,3.59
2023-02-01T07:48:25.773Z,3.64
2023-02-01T07:51:28.587Z,3.67
2023-02-01T07:54:31.400Z,3.86
2023-02-01T07:57:34.144Z,4.06
2023-02-01T08:00:57.239Z,4.28
2023-02-01T08:04:04.177Z,4.33
2023-02-01T08:07:06.891Z,4.45
2023-02-01T08:10:12.313Z,4.48
2023-02-01T08:13:15.469Z,4.64
2023-02-01T08:16:20.134Z,4.69
2023-02-01T08:19:22.938Z,4.55
2023-02-01T08:22:25.728Z,4.68
2023-02-01T08:25:29.468Z,4.64
2023-02-01T08:28:33.121Z,4.70
2023-02-01T08:31:36.271Z,4.79
2023-02-01T08:34:39.123Z,4.85
2023-02-01T08:37:42.011Z,4.86
2023-02-01T08:40:45.159Z,4.92
2023-02-01T08:43:49.141Z,5.00
2023-02-01T08:46:52.162Z,5.02
2023-02-01T08:49:55.361Z,5.11
2023-02-01T08:52:58.377Z,5.14
2023-02-01T08:56:02.024Z,5.37
2023-02-01T08:59:04.945Z,5.27
2023-02-01T09:02:15.461Z,5.39
2023-02-01T09:05:20.546Z,5.41
2023-02-01T09:08:23.443Z,5.35
2023-02-01T09:11:26.963Z,5.35
2023-02-01T09:14:30.263Z,5.43
2023-02-01T09:17:33.054Z,5.60
2023-02-01T09:20:38.286Z,5.62
2023-02-01T09:23:41.305Z,5.67
2023-02-01T09:26:44.265Z,5.69
2023-02-01T09:29:51.126Z,5.79
2023-02-01T09:32:53.994Z,5.85
2023-02-01T09:36:01.784Z,5.91
2023-02-01T09:39:04.976Z,5.93
2023-02-01T09:42:36.874Z,6.00
2023-02-01T09:45:58.250Z,6.26
2023-02-01T09:49:28.150Z,6.20
2023-02-01T09:52:47.156Z,6.23
2023-02-01T09:55:52.918Z,6.37
2023-02-01T09:59:28.519Z,6.48
2023-02-01T10:02:33.547Z,6.88
2023-02-01T10:06:14.697Z,7.18
2023-02-01T10:09:35.793Z,6.95
2023-02-01T10:13:03.021Z,7.04
2023-02-01T10:16:14.235Z,7.11
2023-02-01T10:19:45.129Z,7.28
2023-02-01T10:23:23.125Z,7.51
2023-02-01T10:26:34.480Z,8.49
2023-02-01T10:29:41.127Z,11.91
2023-02-01T10:32:44.228Z,14.83
2023-02-01T10:35:51.112Z,17.19
2023-02-01T10:38:55.076Z,13.95
2023-02-01T10:41:58.204Z,13.72
2023-02-01T10:45:05.056Z,14.29
2023-02-01T10:48:12.995Z,13.61
2023-02-01T10:51:24.893Z,12.84
2023-02-01T10:54:41.749Z,11.23
2023-02-01T10:57:57.788Z,10.45
2023-02-01T11:01:19.740Z,9.71
2023-02-01T11:04:27.639Z,9.37
2023-02-01T11:07:31.462Z,10.13
2023-02-01T11:10:42.439Z,10.68
2023-02-01T11:13:45.567Z,11.70
2023-02-01T11:16:51.455Z,13.38
2023-02-01T11:20:21.632Z,12.78
2023-02-01T11:23:27.457Z,14.58
2023-02-01T11:26:30.692Z,14.00
2023-02-01T11:29:40.828Z,13.61
2023-02-01T11:32:43.707Z,13.42
2023-02-01T11:35:49.264Z,12.06
2023-02-01T11:39:12.511Z,12.32
2023-02-01T11:42:19.164Z,12.67
2023-02-01T11:45:36.053Z,11.60
2023-02-01T11:48:38.936Z,11.63
2023-02-01T11:52:06.408Z,11.23
2023-02-01T11:55:33.657Z,10.72
2023-02-01T11:58:52.264Z,9.83
2023-02-01T12:02:04.362Z,9.54
2023-02-01T12:05:47.534Z,9.39
2023-02-01T12:08:53.613Z,9.07
2023-02-01T12:12:30.348Z,8.91
2023-02-01T12:15:48.832Z,8.66
2023-02-01T12:18:58.453Z,8.59
2023-02-01T12:22:25.272Z,8.40
2023-02-01T12:25:58.332Z,8.40
2023-02-01T12:29:24.794Z,8.33
2023-02-01T12:32:36.465Z,8.26
2023-02-01T12:35:57.431Z,8.13
2023-02-01T12:39:27.932Z,8.17
2023-02-01T12:42:39.965Z,8.24
2023-02-01T12:45:57.269Z,8.35
2023-02-01T12:49:18.459Z,8.17
2023-02-01T12:52:28.640Z,8.11
2023-02-01T12:55:40.252Z,8.36
2023-02-01T12:58:51.040Z,8.44
2023-02-01T13:02:00.061Z,8.48
2023-02-01T13:05:14.564Z,8.33
2023-02-01T13:08:42.833Z,8.06
2023-02-01T13:11:48.303Z,8.10
2023-02-01T13:14:57.708Z,8.01
2023-02-01T13:18:06.069Z,7.94
2023-02-01T13:21:19.690Z,7.90
2023-02-01T13:24:27.287Z,7.80
2023-02-01T13:27:32.183Z,7.78
2023-02-01T13:30:53.142Z,7.71
2023-02-01T13:34:17.842Z,7.63
2023-02-01T13:37:35.888Z,7.47
2023-02-01T13:41:09.428Z,7.43
2023-02-01T13:44:20.607Z,7.56
2023-02-01T13:47:44.998Z,7.48
2023-02-01T13:50:53.213Z,7.50
2023-02-01T13:53:56.009Z,7.59
2023-02-01T13:57:01.310Z,7.53
2023-02-01T14:00:24.844Z,7.54
2023-02-01T14:03:48.048Z,7.64
2023-02-01T14:06:54.239Z,7.61
2023-02-01T14:09:57.024Z,7.67
2023-02-01T14:13:13.534Z,7.57
2023-02-01T14:16:18.045Z,7.57
2023-02-01T14:19:30.087Z,7.47
2023-02-01T14:22:35.514Z,7.32
2023-02-01T14:25:38.993Z,7.25
2023-02-01T14:28:55.362Z,7.47
2023-02-01T14:32:13.677Z,7.32
2023-02-01T14:35:23.330Z,7.21
2023-02-01T14:38:26.285Z,7.06
2023-02-01T14:41:33.772Z,6.97
2023-02-01T14:44:38.219Z,7.19
2023-02-01T14:47:41.889Z,7.15
2023-02-01T14:50:48.564Z,7.12
2023-02-01T14:53:52.304Z,6.88
2023-02-01T14:56:55.867Z,6.73
2023-02-01T15:00:21.664Z,6.51
2023-02-01T15:03:27.580Z,6.45
2023-02-01T15:06:50.104Z,6.46
2023-02-01T15:09:58.149Z,6.48
2023-02-01T15:13:02.346Z,6.18
2023-02-01T15:16:13.447Z,6.19
2023-02-01T15:19:16.272Z,6.26
2023-02-01T15:22:20.354Z,6.34
2023-02-01T15:25:26.776Z,6.33
2023-02-01T15:28:30.004Z,6.38
2023-02-01T15:31:48.244Z,6.47
2023-02-01T15:34:51.385Z,6.40
2023-02-01T15:37:54.243Z,6.41
2023-02-01T15:41:06.806Z,6.27
2023-02-01T15:44:25.033Z,6.16
2023-02-01T15:47:31.873Z,6.04
2023-02-01T15:50:34.765Z,6.03
2023-02-01T15:53:37.549Z,5.91
2023-02-01T15:56:43.130Z,5.87
2023-02-01T15:59:46.566Z,5.84
2023-02-01T16:03:00.627Z,5.79
2023-02-01T16:06:09.983Z,5.62
2023-02-01T16:09:15.219Z,5.56
2023-02-01T16:12:44.209Z,5.46
2023-02-01T16:15:47.899Z,5.45
2023-02-01T16:18:51.101Z,5.35
2023-02-01T16:21:53.897Z,5.40
2023-02-01T16:24:56.914Z,5.29
2023-02-01T16:27:59.747Z,5.32
2023-02-01T16:31:03.245Z,5.29
2023-02-01T16:34:07.523Z,5.34
2023-02-01T16:37:14.706Z,5.32
2023-02-01T16:40:19.654Z,5.25
2023-02-01T16:43:24.475Z,5.27
2023-02-01T16:46:33.484Z,5.27
2023-02-01T16:49:36.335Z,5.20
2023-02-01T16:52:40.718Z,5.22
2023-02-01T16:55:44.731Z,5.31
2023-02-01T16:58:48.415Z,5.01
2023-02-01T17:01:51.385Z,4.84
2023-02-01T17:04:54.316Z,4.70
2023-02-01T17:08:05.080Z,4.60
2023-02-01T17:11:08.550Z,4.51
2023-02-01T17:14:17.083Z,4.25
2023-02-01T17:17:36.953Z,4.15
2023-02-01T17:20:42.829Z,3.91
2023-02-01T17:23:46.868Z,3.67
2023-02-01T17:26:51.679Z,3.68
2023-02-01T17:29:57.311Z,3.52
2023-02-01T17:33:10.226Z,3.29
2023-02-01T17:36:20.075Z,3.12
2023-02-01T17:39:41.952Z,3.08
2023-02-01T17:42:45.224Z,2.98
2023-02-01T17:46:01.379Z,2.97
2023-02-01T17:49:05.872Z,2.94
2023-02-01T17:52:17.228Z,2.87
2023-02-01T17:55:23.694Z,2.92
2023-02-01T17:58:26.956Z,3.02
2023-02-01T18:01:29.997Z,2.94
2023-02-01T18:04:32.975Z,2.96
2023-02-01T18:07:39.190Z,2.94
2023-02-01T18:10:42.436Z,2.87
2023-02-01T18:13:47.205Z,2.80
2023-02-01T18:16:50.241Z,2.93
2023-02-01T18:19:54.314Z,2.84
2023-02-01T18:22:57.597Z,2.66
2023-02-01T18:26:01.384Z,2.50
2023-02-01T18:29:04.418Z,2.44
2023-02-01T18:32:10.005Z,2.22
2023-02-01T18:35:22.927Z,2.04
2023-02-01T18:38:26.250Z,1.89
2023-02-01T18:41:29.419Z,1.68
2023-02-01T18:44:32.569Z,1.54
2023-02-01T18:47:35.644Z,1.50
2023-02-01T18:50:41.003Z,1.49
2023-02-01T18:53:44.596Z,1.55
2023-02-01T18:56:48.670Z,1.71
2023-02-01T18:59:51.550Z,1.62
2023-02-01T19:02:54.948Z,1.59
2023-02-01T19:05:58.247Z,1.57
2023-02-01T19:09:01.359Z,1.58
2023-02-01T19:12:05.175Z,1.52
2023-02-01T19:15:13.025Z,1.54
2023-02-01T19:18:20.334Z,1.53
2023-02-01T19:21:23.494Z,1.49
2023-02-01T19:24:28.196Z,1.50
2023-02-01T19:27:31.015Z,1.46
2023-02-01T19:30:34.087Z,1.31
2023-02-01T19:33:37.308Z,1.27
2023-02-01T19:36:43.663Z,1.32
2023-02-01T19:39:46.662Z,1.28
2023-02-01T19:42:52.424Z,1.29
2023-02-01T19:45:57.626Z,1.23
2023-02-01T19:49:00.796Z,1.21
2023-02-01T19:52:04.522Z,1.09
2023-02-01T19:55:07.617Z,0.93
2023-02-01T19:58:10.670Z,0.80
2023-02-01T20:01:13.424Z,0.69
2023-02-01T20:04:17.439Z,0.58
2023-02-01T20:07:20.958Z,0.58
2023-02-01T20:10:24.578Z,0.50
2023-02-01T20:13:27.717Z,0.44
2023-02-01T20:16:30.921Z,0.41
2023-02-01T20:19:34.493Z,0.30
2023-02-01T20:22:37.670Z,0.29
2023-02-01T20:25:41.584Z,0.19
2023-02-01T20:28:44.783Z,0.17
2023-02-01T20:31:47.820Z,0.27
2023-02-01T20:34:53.479Z,0.24
2023-02-01T20:38:02.005Z,0.15
2023-02-01T20:41:08.019Z,0.34
2023-02-01T20:44:11.441Z,0.45
2023-02-01T20:47:14.530Z,0.59
2023-02-01T20:50:17.941Z,0.51
2023-02-01T20:53:26.601Z,0.53
2023-02-01T20:56:30.226Z,0.61
2023-02-01T20:59:33.485Z,0.84
2023-02-01T21:02:36.764Z,1.12
2023-02-01T21:05:42.885Z,1.16
2023-02-01T21:08:45.863Z,1.29
2023-02-01T21:11:48.695Z,1.22
2023-02-01T21:14:51.793Z,1.23
2023-02-01T21:17:54.923Z,1.20
2023-02-01T21:20:58.344Z,1.27
2023-02-01T21:24:01.278Z,1.29
2023-02-01T21:27:04.624Z,1.35
2023-02-01T21:30:07.954Z,1.42
2023-02-01T21:33:10.803Z,1.39
2023-02-01T21:36:19.806Z,1.46
2023-02-01T21:39:22.603Z,1.49
2023-02-01T21:42:26.739Z,1.47
2023-02-01T21:45:29.569Z,1.61
2023-02-01T21:49:04.948Z,1.75
2023-02-01T21:51:55.736Z,1.73
2023-02-01T21:54:59.884Z,1.70
2023-02-01T21:58:02.715Z,1.79
2023-02-01T22:01:05.543Z,1.81
2023-02-01T22:04:10.331Z,1.85
2023-02-01T22:07:13.156Z,1.84
2023-02-01T22:10:16.036Z,1.93
2023-02-01T22:13:18.925Z,1.89
2023-02-01T22:16:22.527Z,1.86
2023-02-01T22:19:25.427Z,1.84
2023-02-01T22:22:28.238Z,1.83
2023-02-01T22:25:32.031Z,1.76
2023-02-01T22:28:39.618Z,1.79
2023-02-01T22:31:43.819Z,1.91
2023-02-01T22:34:46.761Z,1.88
2023-02-01T22:37:49.489Z,1.85
2023-02-01T22:41:00.760Z,1.67
2023-02-01T22:44:03.509Z,1.57
2023-02-01T22:47:06.357Z,1.49
2023-02-01T22:50:09.671Z,1.44
2023-02-01T22:53:13.081Z,1.26
2023-02-01T22:56:17.229Z,1.12
2023-02-01T22:59:20.097Z,0.94
2023-02-01T23:02:22.965Z,0.85
2023-02-01T23:05:26.706Z,0.75
2023-02-01T23:08:29.665Z,0.76
2023-02-01T23:11:32.679Z,0.80
2023-02-01T23:14:57.566Z,0.63
2023-02-01T23:18:00.299Z,0.51
2023-02-01T23:21:11.683Z,0.35
2023-02-01T23:24:14.444Z,0.30
2023-02-01T23:27:17.293Z,0.35
2023-02-01T23:30:20.221Z,0.40
2023-02-01T23:33:27.740Z,0.48
2023-02-01T23:36:32.907Z,0.59
2023-02-01T23:39:35.898Z,0.64
2023-02-01T23:42:39.378Z,0.66
2023-02-01T23:45:42.105Z,0.60
2023-02-01T23:48:46.249Z,0.60
2023-02-01T23:51:53.019Z,0.60
2023-02-01T23:54:55.796Z,0.57
2023-02-01T23:57:58.519Z,0.60
